createdAt,value
2022-08-07T00:02:37.222Z,98622.25
2022-08-07T00:05:04.228Z,98620.35
2022-08-07T00:07:40.266Z,98619.40
2022-08-07T00:10:26.005Z,98622.29
2022-08-07T00:13:00.238Z,98618.92
2022-08-07T00:15:37.697Z,98620.91
2022-08-07T00:18:06.587Z,98618.39
2022-08-07T00:20:35.436Z,98621.27
2022-08-07T00:23:07.963Z,98625.14
2022-08-07T00:25:37.580Z,98626.80
2022-08-07T00:28:10.642Z,98625.38
2022-08-07T00:30:38.868Z,98626.47
2022-08-07T00:33:08.764Z,98627.43
2022-08-07T00:35:37.753Z,98626.30
2022-08-07T00:38:06.616Z,98627.93
2022-08-07T00:40:36.585Z,98635.54
2022-08-07T00:43:58.971Z,98632.52
2022-08-07T00:46:01.885Z,98631.48
2022-08-07T00:48:32.449Z,98632.42
2022-08-07T00:51:02.867Z,98631.10
2022-08-07T00:53:39.137Z,98626.85
2022-08-07T00:56:18.704Z,98621.38
2022-08-07T00:58:49.727Z,98626.05
2022-08-07T01:01:20.676Z,98627.48
2022-08-07T01:03:57.126Z,98629.66
2022-08-07T01:06:29.444Z,98626.96
2022-08-07T01:08:59.407Z,98623.84
2022-08-07T01:12:23.708Z,98625.08
2022-08-07T01:14:28.273Z,98620.77
2022-08-07T01:16:58.156Z,98622.99
2022-08-07T01:19:32.455Z,98626.41
2022-08-07T01:22:03.160Z,98626.05
2022-08-07T01:24:37.548Z,98622.54
2022-08-07T01:27:19.947Z,98621.34
2022-08-07T01:29:50.563Z,98623.35
2022-08-07T01:32:22.346Z,98623.17
2022-08-07T01:34:52.919Z,98622.34
2022-08-07T01:37:22.026Z,98615.89
2022-08-07T01:39:53.015Z,98619.00
2022-08-07T01:42:38.729Z,98619.77
2022-08-07T01:45:23.000Z,98618.65
2022-08-07T01:48:19.571Z,98619.20
2022-08-07T01:50:58.982Z,98612.66
2022-08-07T01:54:09.046Z,98611.20
2022-08-07T01:56:38.792Z,98613.27
2022-08-07T01:59:15.891Z,98608.56
2022-08-07T02:01:59.726Z,98608.79
2022-08-07T02:04:56.388Z,98614.91
2022-08-07T02:07:36.166Z,98606.92
2022-08-07T02:10:26.746Z,98608.64
2022-08-07T02:12:59.654Z,98609.69
2022-08-07T02:15:35.122Z,98606.36
2022-08-07T02:18:05.650Z,98607.60
2022-08-07T02:20:34.760Z,98607.66
2022-08-07T02:23:05.419Z,98611.16
2022-08-07T02:26:31.766Z,98608.15
2022-08-07T02:28:28.042Z,98610.02
2022-08-07T02:31:28.185Z,98612.91
2022-08-07T02:34:01.903Z,98614.33
2022-08-07T02:36:34.038Z,98615.40
2022-08-07T02:39:17.545Z,98616.41
2022-08-07T02:41:59.672Z,98619.84
2022-08-07T02:44:34.314Z,98621.52
2022-08-07T02:47:05.445Z,98612.58
2022-08-07T02:49:57.644Z,98613.98
2022-08-07T02:52:32.329Z,98617.84
2022-08-07T02:55:15.425Z,98618.56
2022-08-07T02:57:59.864Z,98619.99
2022-08-07T03:00:30.767Z,98621.05
2022-08-07T03:03:06.110Z,98617.95
2022-08-07T03:05:37.211Z,98620.30
2022-08-07T03:08:10.548Z,98621.84
2022-08-07T03:10:46.516Z,98626.42
2022-08-07T03:13:20.167Z,98630.01
2022-08-07T03:15:56.413Z,98626.88
2022-08-07T03:19:17.461Z,98624.98
2022-08-07T03:21:51.122Z,98624.44
2022-08-07T03:24:27.487Z,98624.41
2022-08-07T03:27:03.615Z,98626.05
2022-08-07T03:29:49.343Z,98627.55
2022-08-07T03:32:24.855Z,98626.75
2022-08-07T03:35:16.721Z,98624.83
2022-08-07T03:37:54.158Z,98630.45
2022-08-07T03:45:06.386Z,98630.11
2022-08-07T03:47:47.982Z,98632.35
2022-08-07T03:50:22.857Z,98640.67
2022-08-07T03:52:53.823Z,98642.77
2022-08-07T03:55:23.506Z,98636.92
2022-08-07T03:59:05.242Z,98638.21
2022-08-07T04:01:01.822Z,98638.52
2022-08-07T04:03:49.845Z,98638.65
2022-08-07T04:06:38.044Z,98638.29
2022-08-07T04:09:15.818Z,98642.96
2022-08-07T04:12:26.432Z,98640.98
2022-08-07T04:14:43.740Z,98639.73
2022-08-07T04:17:20.946Z,98639.53
2022-08-07T04:19:54.523Z,98638.41
2022-08-07T04:22:29.059Z,98637.16
2022-08-07T04:25:02.053Z,98641.02
2022-08-07T04:27:35.648Z,98643.98
2022-08-07T04:30:13.379Z,98651.35
2022-08-07T04:32:58.471Z,98646.69
2022-08-07T04:35:35.453Z,98651.02
2022-08-07T04:38:13.181Z,98656.14
2022-08-07T04:40:52.296Z,98653.69
2022-08-07T04:44:12.390Z,98660.71
2022-08-07T04:46:34.320Z,98660.95
2022-08-07T04:49:24.360Z,98666.50
2022-08-07T04:52:25.254Z,98662.83
2022-08-07T04:58:11.334Z,98664.70
2022-08-07T04:58:29.355Z,98669.04
2022-08-07T05:01:18.500Z,98670.85
2022-08-07T05:04:08.888Z,98669.54
2022-08-07T05:06:54.853Z,98666.38
2022-08-07T05:09:45.346Z,98661.71
2022-08-07T05:12:27.208Z,98661.95
2022-08-07T05:15:23.337Z,98657.50
2022-08-07T05:18:06.209Z,98657.36
2022-08-07T05:20:53.674Z,98669.23
2022-08-07T05:23:36.228Z,98665.10
2022-08-07T05:26:12.949Z,98670.55
2022-08-07T05:28:50.083Z,98674.39
2022-08-07T05:31:24.100Z,98674.86
2022-08-07T05:34:10.742Z,98674.48
2022-08-07T05:36:43.711Z,98669.66
2022-08-07T05:40:13.596Z,98674.81
2022-08-07T05:42:33.278Z,98675.16
2022-08-07T05:45:46.031Z,98675.03
2022-08-07T05:48:06.108Z,98676.16
2022-08-07T05:50:42.966Z,98677.79
2022-08-07T05:54:13.867Z,98675.70
2022-08-07T05:56:05.716Z,98678.13
2022-08-07T05:58:39.197Z,98677.09
2022-08-07T06:01:12.350Z,98672.25
2022-08-07T06:03:53.817Z,98677.44
2022-08-07T06:06:29.796Z,98674.04
2022-08-07T06:09:04.643Z,98674.36
2022-08-07T06:11:34.573Z,98673.57
2022-08-07T06:14:12.292Z,98675.89
2022-08-07T06:16:56.393Z,98673.40
2022-08-07T06:19:52.087Z,98674.95
2022-08-07T06:22:23.861Z,98682.02
2022-08-07T06:25:19.658Z,98682.37
2022-08-07T06:28:01.599Z,98685.37
2022-08-07T06:30:37.511Z,98683.98
2022-08-07T06:33:16.125Z,98687.15
2022-08-07T06:36:06.272Z,98691.34
2022-08-07T06:38:36.017Z,98691.74
2022-08-07T06:41:12.908Z,98692.84
2022-08-07T06:43:59.460Z,98691.66
2022-08-07T06:46:35.482Z,98691.45
2022-08-07T06:49:05.225Z,98689.06
2022-08-07T06:51:49.313Z,98691.38
2022-08-07T06:55:32.080Z,98691.04
2022-08-07T06:57:09.806Z,98689.08
2022-08-07T07:00:11.706Z,98695.30
2022-08-07T07:02:53.965Z,98696.30
2022-08-07T07:06:02.901Z,98697.67
2022-08-07T07:08:18.230Z,98701.10
2022-08-07T07:10:56.427Z,98702.86
2022-08-07T07:13:57.966Z,98699.13
2022-08-07T07:16:45.121Z,98700.98
2022-08-07T07:19:55.149Z,98698.47
2022-08-07T07:22:40.040Z,98700.46
2022-08-07T07:26:31.225Z,98701.58
2022-08-07T07:28:29.643Z,98706.29
2022-08-07T07:31:44.660Z,98702.40
2022-08-07T07:34:22.429Z,98701.25
2022-08-07T07:37:05.479Z,98710.01
2022-08-07T07:39:54.428Z,98706.70
2022-08-07T07:42:32.643Z,98709.25
2022-08-07T07:45:04.484Z,98706.39
2022-08-07T07:47:52.129Z,98710.13
2022-08-07T07:50:34.300Z,98709.41
2022-08-07T07:53:20.199Z,98711.71
2022-08-07T07:55:54.675Z,98709.59
2022-08-07T07:58:30.255Z,98707.89
2022-08-07T08:00:59.367Z,98704.38
2022-08-07T08:04:10.201Z,98705.41
2022-08-07T08:06:19.545Z,98703.02
2022-08-07T08:08:50.015Z,98699.17
2022-08-07T08:11:59.208Z,98701.11
2022-08-07T08:14:08.770Z,98705.48
2022-08-07T08:16:50.437Z,98701.77
2022-08-07T08:20:15.753Z,98704.30
2022-08-07T08:22:36.492Z,98701.59
2022-08-07T08:25:42.841Z,98699.89
2022-08-07T08:28:23.919Z,98705.70
2022-08-07T08:31:14.882Z,98708.55
2022-08-07T08:33:55.409Z,98708.91
2022-08-07T08:36:30.673Z,98703.75
2022-08-07T08:39:01.913Z,98707.39
2022-08-07T08:41:58.429Z,98711.70
2022-08-07T08:44:54.424Z,98709.17
2022-08-07T08:48:04.217Z,98701.03
2022-08-07T08:50:40.759Z,98699.16
2022-08-07T08:53:34.014Z,98696.48
2022-08-07T08:56:27.467Z,98694.71
2022-08-07T08:59:13.533Z,98696.88
2022-08-07T09:02:08.856Z,98691.81
2022-08-07T09:04:47.287Z,98701.37
2022-08-07T09:07:46.422Z,98702.93
2022-08-07T09:10:33.095Z,98701.81
2022-08-07T09:13:11.023Z,98701.88
2022-08-07T09:16:25.844Z,98694.66
2022-08-07T09:19:51.533Z,98687.23
2022-08-07T09:24:30.561Z,98685.14
2022-08-07T09:26:01.893Z,98685.97
2022-08-07T09:30:04.319Z,98675.45
2022-08-07T09:31:48.611Z,98670.92
2022-08-07T09:34:44.113Z,98667.76
2022-08-07T09:37:48.268Z,98668.19
2022-08-07T09:40:54.441Z,98662.98
2022-08-07T09:44:06.470Z,98661.82
2022-08-07T09:47:51.540Z,98664.99
2022-08-07T09:50:00.731Z,98664.20
2022-08-07T09:52:51.682Z,98665.38
2022-08-07T09:56:02.701Z,98665.55
2022-08-07T09:58:48.722Z,98663.50
2022-08-07T10:02:03.448Z,98661.33
2022-08-07T10:04:57.092Z,98659.17
2022-08-07T10:07:52.813Z,98659.56
2022-08-07T10:11:59.114Z,98661.50
2022-08-07T10:14:02.098Z,98660.94
2022-08-07T10:16:59.333Z,98658.53
2022-08-07T10:19:46.886Z,98653.31
2022-08-07T10:22:33.391Z,98650.81
2022-08-07T10:25:42.062Z,98654.94
2022-08-07T10:28:23.741Z,98647.18
2022-08-07T10:31:06.137Z,98646.15
2022-08-07T10:34:15.182Z,98643.38
2022-08-07T10:37:12.723Z,98642.92
2022-08-07T10:40:21.015Z,98639.83
2022-08-07T10:43:34.242Z,98636.21
2022-08-07T10:46:13.768Z,98637.57
2022-08-07T10:48:48.990Z,98637.97
2022-08-07T10:52:02.338Z,98632.13
2022-08-07T10:55:01.537Z,98624.95
2022-08-07T10:57:43.440Z,98625.07
2022-08-07T11:00:43.008Z,98621.71
2022-08-07T11:03:17.311Z,98622.00
2022-08-07T11:05:54.761Z,98618.52
2022-08-07T11:08:47.489Z,98615.69
2022-08-07T11:11:37.552Z,98618.06
2022-08-07T11:14:44.523Z,98615.98
2022-08-07T11:17:43.545Z,98618.98
2022-08-07T11:20:22.465Z,98618.52
2022-08-07T11:22:58.259Z,98618.01
2022-08-07T11:25:42.542Z,98616.50
2022-08-07T11:28:30.390Z,98615.52
2022-08-07T11:31:13.220Z,98609.78
2022-08-07T11:34:00.356Z,98613.23
2022-08-07T11:36:37.740Z,98611.39
2022-08-07T11:39:14.510Z,98609.17
2022-08-07T11:42:02.327Z,98607.55
2022-08-07T11:44:51.974Z,98607.05
2022-08-07T11:47:56.120Z,98600.42
2022-08-07T11:50:36.275Z,98595.27
2022-08-07T11:53:43.300Z,98593.92
2022-08-07T11:56:42.364Z,98589.52
2022-08-07T12:00:12.560Z,98588.23
2022-08-07T12:02:52.173Z,98589.23
2022-08-07T12:05:28.774Z,98586.42
2022-08-07T12:08:26.070Z,98581.69
2022-08-07T12:11:32.598Z,98584.34
2022-08-07T12:14:10.562Z,98578.85
2022-08-07T12:16:45.977Z,98569.69
2022-08-07T12:20:02.652Z,98569.06
2022-08-07T12:22:56.310Z,98571.86
2022-08-07T12:26:21.614Z,98571.35
2022-08-07T12:28:49.734Z,98568.19
2022-08-07T12:31:53.106Z,98565.60
2022-08-07T12:34:21.312Z,98560.15
2022-08-07T12:36:53.598Z,98558.73
2022-08-07T12:39:44.222Z,98560.20
2022-08-07T12:42:13.570Z,98557.39
2022-08-07T12:44:47.029Z,98560.48
2022-08-07T12:47:21.888Z,98557.30
2022-08-07T12:50:39.214Z,98558.20
2022-08-07T12:53:19.244Z,98555.95
2022-08-07T12:56:03.931Z,98547.78
2022-08-07T12:58:39.550Z,98549.75
2022-08-07T13:01:37.061Z,98545.94
2022-08-07T13:04:57.731Z,98541.63
2022-08-07T13:08:14.230Z,98541.92
2022-08-07T13:11:16.128Z,98542.89
2022-08-07T13:14:12.261Z,98544.98
2022-08-07T13:17:04.266Z,98535.84
2022-08-07T13:19:50.912Z,98534.41
2022-08-07T13:22:42.187Z,98530.05
2022-08-07T13:25:30.076Z,98531.21
2022-08-07T13:28:13.150Z,98531.74
2022-08-07T13:30:53.219Z,98530.30
2022-08-07T13:34:31.527Z,98529.63
2022-08-07T13:36:39.397Z,98528.13
2022-08-07T13:40:33.078Z,98526.65
2022-08-07T13:42:24.786Z,98521.55
2022-08-07T13:46:07.095Z,98522.08
2022-08-07T13:48:06.436Z,98521.04
2022-08-07T13:51:00.390Z,98522.52
2022-08-07T13:53:55.310Z,98519.84
2022-08-07T13:56:36.274Z,98519.67
2022-08-07T13:59:17.559Z,98515.47
2022-08-07T14:02:03.578Z,98511.03
2022-08-07T14:04:49.225Z,98511.23
2022-08-07T14:07:23.077Z,98504.26
2022-08-07T14:10:02.783Z,98500.55
2022-08-07T14:12:58.800Z,98499.86
2022-08-07T14:15:44.408Z,98496.60
2022-08-07T14:18:29.578Z,98498.62
2022-08-07T14:21:21.262Z,98499.04
2022-08-07T14:24:03.693Z,98498.81
2022-08-07T14:30:07.804Z,98491.16
2022-08-07T14:32:46.091Z,98488.13
2022-08-07T14:35:45.579Z,98485.89
2022-08-07T14:38:09.581Z,98478.17
2022-08-07T14:41:03.928Z,98473.01
2022-08-07T14:46:56.510Z,98468.74
2022-08-07T14:52:27.756Z,98464.20
2022-08-07T14:54:58.797Z,98471.30
2022-08-07T14:57:55.260Z,98469.27
2022-08-07T15:00:29.920Z,98464.94
2022-08-07T15:06:04.168Z,98458.63
2022-08-07T15:11:53.124Z,98455.16
2022-08-07T15:14:25.510Z,98455.02
2022-08-07T15:17:11.354Z,98452.98
2022-08-07T15:20:33.723Z,98453.73
2022-08-07T15:22:55.003Z,98453.37
2022-08-07T15:25:25.581Z,98446.70
2022-08-07T15:28:32.478Z,98444.92
2022-08-07T15:31:06.434Z,98443.66
2022-08-07T15:33:38.671Z,98437.71
2022-08-07T15:36:12.663Z,98436.46
2022-08-07T15:42:44.389Z,98434.87
2022-08-07T15:44:23.559Z,98429.40
2022-08-07T15:47:03.285Z,98432.52
2022-08-07T15:52:31.359Z,98430.11
2022-08-07T15:55:04.641Z,98428.27
2022-08-07T15:57:47.627Z,98425.09
2022-08-07T16:00:31.663Z,98425.73
2022-08-07T16:03:21.343Z,98419.66
2022-08-07T16:05:51.969Z,98415.60
2022-08-07T16:08:32.211Z,98409.45
2022-08-07T16:11:26.545Z,98413.15
2022-08-07T16:14:06.405Z,98415.75
2022-08-07T16:17:02.907Z,98409.52
2022-08-07T16:20:06.188Z,98416.23
2022-08-07T16:22:55.270Z,98416.62
2022-08-07T16:25:52.218Z,98411.98
2022-08-07T16:30:07.582Z,98416.64
2022-08-07T16:31:58.661Z,98416.20
2022-08-07T16:34:51.157Z,98415.96
2022-08-07T16:38:02.919Z,98413.59
2022-08-07T16:41:02.417Z,98410.63
2022-08-07T16:44:04.029Z,98412.96
2022-08-07T16:47:05.887Z,98418.52
2022-08-07T16:50:29.310Z,98418.06
2022-08-07T16:53:57.275Z,98418.85
2022-08-07T16:56:14.729Z,98420.94
2022-08-07T16:59:10.524Z,98417.50
2022-08-07T17:02:03.610Z,98412.77
2022-08-07T17:04:51.105Z,98416.52
2022-08-07T17:07:55.885Z,98413.98
2022-08-07T17:10:54.661Z,98418.43
2022-08-07T17:14:19.670Z,98416.20
2022-08-07T17:16:57.729Z,98416.47
2022-08-07T17:20:01.548Z,98410.52
2022-08-07T17:22:38.153Z,98415.17
2022-08-07T17:25:47.419Z,98415.84
2022-08-07T17:28:19.776Z,98417.71
2022-08-07T17:31:00.815Z,98420.98
2022-08-07T17:34:15.384Z,98421.33
2022-08-07T17:36:58.078Z,98421.37
2022-08-07T17:40:08.057Z,98422.66
2022-08-07T17:42:58.456Z,98425.63
2022-08-07T17:45:35.234Z,98426.89
2022-08-07T17:48:10.404Z,98425.26
2022-08-07T17:51:08.359Z,98431.16
2022-08-07T17:54:06.488Z,98437.04
2022-08-07T17:56:49.819Z,98438.23
2022-08-07T17:59:45.054Z,98437.30
2022-08-07T18:02:41.316Z,98438.73
2022-08-07T18:06:02.374Z,98441.35
2022-08-07T18:09:00.789Z,98441.62
2022-08-07T18:12:07.414Z,98446.81
2022-08-07T18:14:46.067Z,98450.52
2022-08-07T18:18:33.184Z,98453.58
2022-08-07T18:21:09.409Z,98455.52
2022-08-07T18:23:43.481Z,98457.15
2022-08-07T18:26:17.293Z,98457.16
2022-08-07T18:30:05.802Z,98454.48
2022-08-07T18:32:21.562Z,98459.69
2022-08-07T18:35:05.326Z,98457.70
2022-08-07T18:38:59.169Z,98460.81
2022-08-07T18:40:53.537Z,98462.13
2022-08-07T18:43:59.884Z,98460.55
2022-08-07T18:46:47.358Z,98459.97
2022-08-07T18:50:33.455Z,98458.61
2022-08-07T18:52:40.884Z,98453.20
2022-08-07T18:55:42.946Z,98461.66
2022-08-07T18:58:42.673Z,98462.56
2022-08-07T19:01:58.876Z,98461.04
2022-08-07T19:04:32.170Z,98464.96
2022-08-07T19:07:34.964Z,98463.33
2022-08-07T19:10:18.614Z,98458.84
2022-08-07T19:13:37.858Z,98454.58
2022-08-07T19:17:05.677Z,98452.10
2022-08-07T19:19:49.375Z,98454.08
2022-08-07T19:22:36.266Z,98457.70
2022-08-07T19:26:22.808Z,98456.92
2022-08-07T19:28:31.000Z,98455.68
2022-08-07T19:31:37.356Z,98460.28
2022-08-07T19:34:08.330Z,98465.98
2022-08-07T19:36:43.797Z,98470.33
2022-08-07T19:39:56.053Z,98471.01
2022-08-07T19:42:24.840Z,98473.95
2022-08-07T19:45:09.975Z,98480.05
2022-08-07T19:47:42.092Z,98481.39
2022-08-07T19:50:43.846Z,98478.02
2022-08-07T19:53:00.990Z,98482.71
2022-08-07T19:55:58.018Z,98484.00
2022-08-07T19:58:28.422Z,98488.31
2022-08-07T20:00:58.728Z,98487.26
2022-08-07T20:03:35.379Z,98487.25
2022-08-07T20:06:06.018Z,98486.00
2022-08-07T20:08:38.904Z,98484.02
2022-08-07T20:11:15.245Z,98482.16
2022-08-07T20:13:55.622Z,98487.02
2022-08-07T20:16:35.692Z,98484.64
2022-08-07T20:20:26.381Z,98491.73
2022-08-07T20:23:23.096Z,98490.77
2022-08-07T20:25:56.836Z,98492.81
2022-08-07T20:28:29.768Z,98489.14
2022-08-07T20:30:59.502Z,98498.52
2022-08-07T20:33:38.059Z,98502.88
2022-08-07T20:36:09.028Z,98501.48
2022-08-07T20:38:59.339Z,98505.50
2022-08-07T20:41:34.086Z,98508.83
2022-08-07T20:44:10.324Z,98514.23
2022-08-07T20:46:44.291Z,98516.72
2022-08-07T20:49:58.375Z,98513.58
2022-08-07T20:52:14.267Z,98507.37
2022-08-07T20:54:56.352Z,98507.08
2022-08-07T20:57:29.730Z,98502.83
2022-08-07T21:00:08.325Z,98509.67
2022-08-07T21:02:58.720Z,98511.25
2022-08-07T21:05:52.426Z,98511.30
2022-08-07T21:08:37.487Z,98513.52
2022-08-07T21:11:14.105Z,98512.27
2022-08-07T21:14:16.433Z,98512.54
2022-08-07T21:17:06.430Z,98507.38
2022-08-07T21:19:51.910Z,98504.48
2022-08-07T21:22:39.902Z,98503.93
2022-08-07T21:25:44.316Z,98501.77
2022-08-07T21:28:47.985Z,98498.90
2022-08-07T21:31:49.140Z,98506.10
2022-08-07T21:34:32.211Z,98508.63
2022-08-07T21:37:13.543Z,98507.85
2022-08-07T21:39:46.173Z,98508.48
2022-08-07T21:42:48.111Z,98511.85
2022-08-07T21:46:09.938Z,98510.27
2022-08-07T21:48:55.869Z,98512.05
2022-08-07T21:51:51.329Z,98510.67
2022-08-07T21:55:01.695Z,98515.33
2022-08-07T21:57:56.121Z,98510.46
2022-08-07T22:00:25.776Z,98510.33
2022-08-07T22:03:06.198Z,98510.48
2022-08-07T22:06:03.646Z,98512.33
2022-08-07T22:08:43.374Z,98510.36
2022-08-07T22:11:17.817Z,98508.37
2022-08-07T22:13:54.874Z,98510.52
2022-08-07T22:16:39.162Z,98507.95
2022-08-07T22:19:29.743Z,98508.37
2022-08-07T22:22:17.773Z,98505.22
2022-08-07T22:25:08.716Z,98505.80
2022-08-07T22:28:07.317Z,98505.34
2022-08-07T22:30:52.911Z,98504.89
2022-08-07T22:33:53.160Z,98509.35
2022-08-07T22:36:46.654Z,98511.23
2022-08-07T22:39:30.211Z,98502.69
2022-08-07T22:42:54.028Z,98502.51
2022-08-07T22:46:04.236Z,98500.71
2022-08-07T22:48:31.456Z,98496.77
2022-08-07T22:51:22.987Z,98496.13
2022-08-07T22:54:19.218Z,98497.90
2022-08-07T22:57:16.965Z,98490.22
2022-08-07T22:59:44.967Z,98490.27
2022-08-07T23:02:27.543Z,98488.86
2022-08-07T23:06:08.220Z,98488.59
2022-08-07T23:08:34.452Z,98488.40
2022-08-07T23:11:26.313Z,98487.17
2022-08-07T23:14:15.117Z,98486.25
2022-08-07T23:17:15.680Z,98480.80
2022-08-07T23:20:21.567Z,98480.73
2022-08-07T23:24:06.589Z,98479.31
2022-08-07T23:26:23.422Z,98474.65
2022-08-07T23:29:43.876Z,98477.09
2022-08-07T23:34:21.733Z,98474.20
2022-08-07T23:35:17.937Z,98473.53
2022-08-07T23:38:10.854Z,98477.37
2022-08-07T23:40:51.751Z,98477.94
2022-08-07T23:43:44.208Z,98479.53
2022-08-07T23:46:35.660Z,98475.23
2022-08-07T23:49:50.584Z,98481.02
2022-08-07T23:52:59.569Z,98479.50
2022-08-07T23:55:52.353Z,98482.46
2022-08-07T23:58:32.672Z,98480.96
